createdAt,value
2022-12-23T00:00:54.186Z,11.80
2022-12-23T00:11:23.148Z,13.10
2022-12-23T00:21:50.741Z,11.10
2022-12-23T00:32:18.447Z,12.40
2022-12-23T00:42:55.091Z,14.70
2022-12-23T00:53:23.336Z,12.10
2022-12-23T01:04:08.111Z,15.10
2022-12-23T01:14:35.724Z,12.00
2022-12-23T01:25:03.673Z,11.90
2022-12-23T01:35:31.327Z,10.50
2022-12-23T01:45:58.986Z,8.30
2022-12-23T01:56:31.066Z,11.10
2022-12-23T02:07:15.726Z,8.10
2022-12-23T02:17:54.203Z,8.20
2022-12-23T02:28:51.413Z,7.80
2022-12-23T02:39:26.939Z,10.40
2022-12-23T02:49:58.849Z,7.90
2022-12-23T03:00:26.434Z,6.90
2022-12-23T03:11:09.274Z,7.40
2022-12-23T03:21:44.479Z,6.80
2022-12-23T03:32:15.931Z,6.50
2022-12-23T03:42:46.717Z,6.30
2022-12-23T03:53:18.671Z,6.40
2022-12-23T04:03:56.216Z,6.80
2022-12-23T04:14:24.642Z,5.00
2022-12-23T04:24:52.143Z,5.00
2022-12-23T04:35:19.813Z,5.10
2022-12-23T04:45:52.995Z,3.50
2022-12-23T04:56:20.632Z,4.80
2022-12-23T05:06:48.133Z,5.10
2022-12-23T05:17:15.889Z,4.70
2022-12-23T05:27:43.483Z,6.40
2022-12-23T05:38:11.126Z,5.80
2022-12-23T05:48:38.736Z,7.10
2022-12-23T05:59:06.310Z,10.10
2022-12-23T06:09:33.953Z,9.40
2022-12-23T06:20:01.538Z,5.20
2022-12-23T06:30:29.150Z,7.70
2022-12-23T06:40:56.743Z,8.10
2022-12-23T06:51:24.308Z,7.20
2022-12-23T07:01:51.864Z,9.40
2022-12-23T07:12:19.632Z,9.50
2022-12-23T07:22:47.183Z,11.50
2022-12-23T07:33:14.834Z,14.10
2022-12-23T07:43:42.390Z,13.30
2022-12-23T07:54:12.810Z,12.80
2022-12-23T08:04:45.633Z,10.70
2022-12-23T08:15:14.348Z,10.80
2022-12-23T08:25:42.216Z,12.20
2022-12-23T08:36:11.794Z,9.30
2022-12-23T08:46:40.112Z,7.80
2022-12-23T08:57:07.868Z,6.10
2022-12-23T09:07:35.378Z,7.00
2022-12-23T09:18:03.103Z,7.00
2022-12-23T09:28:31.310Z,9.00
2022-12-23T09:38:59.775Z,9.90
2022-12-23T09:49:28.469Z,10.10
2022-12-23T10:10:36.553Z,5.10
2022-12-23T10:21:08.855Z,4.80
2022-12-23T10:31:47.745Z,5.60
2022-12-23T10:42:25.714Z,5.40
2022-12-23T10:52:58.020Z,5.70
2022-12-23T11:03:30.686Z,4.40
2022-12-23T11:13:58.684Z,6.60
2022-12-23T11:24:28.276Z,7.50
2022-12-23T11:34:57.382Z,7.00
2022-12-23T11:45:28.117Z,8.60
2022-12-23T11:56:04.369Z,9.00
2022-12-23T12:06:32.735Z,11.10
2022-12-23T12:17:07.187Z,10.00
2022-12-23T12:27:40.302Z,11.60
2022-12-23T12:38:17.245Z,12.90
2022-12-23T12:48:51.803Z,14.20
2022-12-23T12:59:24.259Z,15.50
2022-12-23T13:10:01.992Z,13.40
2022-12-23T13:20:35.014Z,12.00
2022-12-23T13:31:07.763Z,10.10
2022-12-23T13:41:40.106Z,7.90
2022-12-23T13:52:13.160Z,6.40
2022-12-23T14:02:53.022Z,9.00
2022-12-23T14:13:24.073Z,6.60
2022-12-23T14:24:04.942Z,9.90
2022-12-23T14:34:36.310Z,9.50
2022-12-23T14:45:34.962Z,9.10
2022-12-23T14:56:24.679Z,10.00
2022-12-23T15:06:55.983Z,9.80
2022-12-23T15:17:29.417Z,9.00
2022-12-23T15:28:01.894Z,9.60
2022-12-23T15:38:33.448Z,10.70
2022-12-23T15:49:01.366Z,14.80
2022-12-23T15:59:33.642Z,20.00
2022-12-23T16:10:05.605Z,16.10
2022-12-23T16:20:41.188Z,14.60
2022-12-23T16:31:11.523Z,14.20
2022-12-23T16:41:39.160Z,14.80
2022-12-23T16:52:09.381Z,13.90
2022-12-23T17:02:37.181Z,12.00
2022-12-23T17:13:04.983Z,13.30
2022-12-23T17:23:33.961Z,13.20
2022-12-23T17:34:01.879Z,9.90
2022-12-23T17:44:29.457Z,11.70
2022-12-23T17:54:57.307Z,12.90
2022-12-23T18:05:27.600Z,14.20
2022-12-23T18:15:55.079Z,12.90
2022-12-23T18:26:22.816Z,12.40
2022-12-23T18:36:51.919Z,11.80
2022-12-23T18:47:19.792Z,10.60
2022-12-23T18:57:47.304Z,1.60
2022-12-23T19:08:18.930Z,10.20
2022-12-23T19:18:50.467Z,10.30
2022-12-23T19:29:18.260Z,11.10
2022-12-23T19:39:45.988Z,10.20
2022-12-23T19:50:14.540Z,9.30
2022-12-23T20:00:42.338Z,8.70
2022-12-23T20:11:12.468Z,9.10
2022-12-23T20:21:40.441Z,11.50
2022-12-23T20:32:08.558Z,16.20
2022-12-23T20:42:36.642Z,15.60
2022-12-23T20:53:04.312Z,9.70
2022-12-23T21:03:31.977Z,9.80
2022-12-23T21:14:06.362Z,11.60
2022-12-23T21:24:34.861Z,11.80
2022-12-23T21:35:03.032Z,13.00
2022-12-23T21:45:30.647Z,14.70
2022-12-23T21:56:03.351Z,13.00
2022-12-23T22:06:32.853Z,14.70
2022-12-23T22:17:00.465Z,12.10
2022-12-23T22:27:28.130Z,10.90
2022-12-23T22:37:55.720Z,12.00
2022-12-23T22:48:23.339Z,10.40
2022-12-23T22:58:52.130Z,11.10
2022-12-23T23:19:46.535Z,8.90
2022-12-23T23:30:14.954Z,8.70
2022-12-23T23:40:42.503Z,10.00
2022-12-23T23:51:10.160Z,14.90
